Terminal Aerodrome Forecast
Issued by NWS

Home | Current Version | Previous Version | Text Only | Print | Product List | Glossary On
Versions: 1 2 3 4 5 6 7 8 9 10 11 12 13 14 15 16
000
FTUS46 KSEW 191700
TAFCLM
TAF
KCLM 191732Z 1918/2018 00000KT P6SM FEW005 SCT025 OVC050
      TEMPO 1918/1921 5SM -RA BR
     FM192100 32006KT P6SM BKN050 BKN100
     FM200100 29005KT P6SM SCT080
     FM201000 VRB03KT P6SM BKN008=

USA.gov is the U.S. government's official web portal to all federal, state and local government web resources and services.